Time;durP1;ratioP1;P1;durP2;ratioP2;P2;SDS_P1;SDS_P2;PMS_P1;PMS_P2;Temp;Humidity;BMP_temperature;BMP_pressure;BME280_temperature;BME280_humidity;BME280_pressure;Samples;Min_cycle;Max_cycle;Signal;HPM_P1;HPM_P2
2022/02/26 00:02:05;;;;;;;10.50;2.80;;;4.30;99.90;;;;;;4849558;29;20399;-81
2022/02/26 00:04:51;;;;;;;3.87;3.17;;;4.20;99.90;;;;;;4871189;29;20751;-80
2022/02/26 00:07:36;;;;;;;4.10;3.03;;;4.30;99.90;;;;;;4850094;29;20407;-81
2022/02/26 00:10:21;;;;;;;3.60;3.30;;;4.30;99.90;;;;;;4848339;29;20703;-81
2022/02/26 00:13:06;;;;;;;3.13;2.20;;;4.30;99.90;;;;;;4847718;29;20876;-82
2022/02/26 00:15:51;;;;;;;3.93;3.17;;;4.30;99.90;;;;;;4860257;29;20468;-82
2022/02/26 00:18:36;;;;;;;3.33;2.63;;;4.20;99.90;;;;;;4848359;29;20613;-82
2022/02/26 00:21:20;;;;;;;3.70;3.33;;;4.30;99.90;;;;;;4848780;29;20423;-82
2022/02/26 00:24:05;;;;;;;11.93;4.33;;;4.20;99.90;;;;;;4848882;29;20378;-82
2022/02/26 00:26:50;;;;;;;3.63;3.33;;;4.30;99.90;;;;;;4848899;29;20400;-81
2022/02/26 00:29:35;;;;;;;5.73;3.40;;;4.20;99.90;;;;;;4850314;29;20440;-81
2022/02/26 00:32:19;;;;;;;8.03;3.43;;;4.00;99.90;;;;;;4851709;29;20382;-81
2022/02/26 00:35:04;;;;;;;2.77;2.60;;;4.30;99.90;;;;;;4863811;29;20835;-80
2022/02/26 00:37:49;;;;;;;5.40;2.57;;;4.30;99.90;;;;;;4852127;29;20418;-81
2022/02/26 00:40:34;;;;;;;3.67;2.60;;;4.20;99.90;;;;;;4866916;29;20698;-81
2022/02/26 00:43:20;;;;;;;15.43;5.00;;;4.00;99.90;;;;;;4854115;29;20400;-79
2022/02/26 00:46:07;;;;;;;5.30;4.10;;;4.20;99.90;;;;;;4857404;29;20923;-82
2022/02/26 00:51:51;;;;;;;3.40;3.03;;;4.30;99.90;;;;;;4866163;29;20389;-81
2022/02/26 00:54:36;;;;;;;3.87;3.07;;;4.40;99.90;;;;;;4864277;29;20442;-81
2022/02/26 00:57:21;;;;;;;4.50;3.40;;;4.40;99.90;;;;;;4883391;29;20496;-80
2022/02/26 01:00:08;;;;;;;3.60;2.87;;;4.40;99.90;;;;;;4866354;29;20420;-80
2022/02/26 01:02:52;;;;;;;3.30;2.73;;;4.50;99.90;;;;;;4865977;29;20391;-81
2022/02/26 01:05:36;;;;;;;5.00;2.90;;;4.30;99.90;;;;;;4855044;29;20432;-82
2022/02/26 01:08:21;;;;;;;3.20;2.90;;;4.40;99.90;;;;;;4848868;29;20408;-82
2022/02/26 01:11:09;;;;;;;2.90;2.60;;;4.30;99.90;;;;;;4860262;29;20414;-81
2022/02/26 01:14:13;;;;;;;3.43;2.90;;;4.30;99.90;;;;;;4883071;29;20474;-81
2022/02/26 01:16:57;;;;;;;3.80;2.53;;;4.30;99.90;;;;;;4884098;29;20490;-82
2022/02/26 01:19:42;;;;;;;15.90;3.33;;;4.30;99.90;;;;;;4884149;29;20380;-82
2022/02/26 01:22:26;;;;;;;2.70;2.40;;;4.40;99.90;;;;;;4884402;29;20889;-82
2022/02/26 01:25:10;;;;;;;3.90;2.60;;;4.50;99.90;;;;;;4871190;29;20394;-82
2022/02/26 01:27:54;;;;;;;5.10;3.43;;;4.40;99.90;;;;;;4884295;29;20436;-82
2022/02/26 01:30:39;;;;;;;3.47;3.17;;;4.50;99.90;;;;;;4884721;29;20933;-82
2022/02/26 01:33:23;;;;;;;3.63;2.80;;;4.50;99.90;;;;;;4872938;29;20424;-82
2022/02/26 01:36:08;;;;;;;4.50;3.20;;;4.40;99.90;;;;;;4898315;29;20624;-81
2022/02/26 01:38:54;;;;;;;2.70;2.37;;;4.40;99.90;;;;;;4901646;29;20414;-81
2022/02/26 01:41:40;;;;;;;2.73;2.43;;;4.30;99.90;;;;;;4901509;29;20397;-81
2022/02/26 01:44:26;;;;;;;6.37;2.90;;;4.30;99.90;;;;;;4891203;29;20398;-81
2022/02/26 01:47:10;;;;;;;7.17;2.97;;;4.30;99.90;;;;;;4877591;29;20757;-82
2022/02/26 01:49:55;;;;;;;3.53;2.63;;;4.40;99.90;;;;;;4877389;29;20430;-82
2022/02/26 01:52:41;;;;;;;3.33;3.13;;;4.30;99.90;;;;;;4865005;29;20435;-82
2022/02/26 01:55:26;;;;;;;2.70;2.50;;;4.20;99.90;;;;;;4868787;29;20495;-81
2022/02/26 01:58:11;;;;;;;8.43;2.90;;;4.20;99.90;;;;;;4888085;29;20452;-81
2022/02/26 02:00:55;;;;;;;20.50;3.33;;;4.10;99.90;;;;;;4869658;29;20460;-82
2022/02/26 02:03:40;;;;;;;3.03;2.73;;;4.20;99.90;;;;;;4867178;29;20415;-81
2022/02/26 02:06:26;;;;;;;3.37;3.00;;;4.20;99.90;;;;;;4865725;29;20481;-82
2022/02/26 02:09:12;;;;;;;4.10;2.47;;;4.10;99.90;;;;;;4866259;29;20462;-81
2022/02/26 02:11:56;;;;;;;17.97;3.53;;;4.10;99.90;;;;;;4866722;29;20539;-81
2022/02/26 02:14:44;;;;;;;2.63;2.40;;;4.10;99.90;;;;;;4853376;29;20430;-81
2022/02/26 02:17:29;;;;;;;16.13;4.50;;;4.10;99.90;;;;;;4866132;29;20399;-82
2022/02/26 02:20:14;;;;;;;3.87;3.10;;;4.10;99.90;;;;;;4852610;29;20963;-82
2022/02/26 02:22:58;;;;;;;2.97;2.63;;;4.10;99.90;;;;;;4865920;29;20410;-81
2022/02/26 02:25:42;;;;;;;5.67;3.37;;;4.10;99.90;;;;;;4853457;29;20968;-81
2022/02/26 02:28:27;;;;;;;3.53;2.97;;;4.00;99.90;;;;;;4866877;29;20428;-80
2022/02/26 02:31:11;;;;;;;4.77;3.27;;;4.00;99.90;;;;;;4872397;29;20395;-80
2022/02/26 02:33:55;;;;;;;6.00;4.27;;;3.90;99.90;;;;;;4874285;29;20405;-81
2022/02/26 02:36:45;;;;;;;4.83;2.90;;;4.00;99.90;;;;;;4867582;29;20474;-81
2022/02/26 02:39:30;;;;;;;2.67;2.47;;;4.00;99.90;;;;;;4867515;29;20445;-81
2022/02/26 02:42:15;;;;;;;2.87;2.60;;;3.90;99.90;;;;;;4867831;29;20395;-81
2022/02/26 02:45:01;;;;;;;9.80;3.33;;;3.90;99.90;;;;;;4867580;29;20393;-80
2022/02/26 02:47:47;;;;;;;4.20;3.13;;;3.80;99.90;;;;;;4867642;29;20418;-80
2022/02/26 02:50:32;;;;;;;3.20;2.90;;;3.70;99.90;;;;;;4868041;29;20395;-81
2022/02/26 02:53:18;;;;;;;3.13;2.57;;;3.70;99.90;;;;;;4868028;29;20374;-81
2022/02/26 02:56:03;;;;;;;5.63;2.40;;;3.80;99.90;;;;;;4867175;29;20460;-81
2022/02/26 02:58:48;;;;;;;2.73;2.53;;;3.80;99.90;;;;;;4868097;29;20403;-80
2022/02/26 03:01:33;;;;;;;8.80;3.50;;;3.80;99.90;;;;;;4868568;29;20444;-81
2022/02/26 03:04:18;;;;;;;6.37;3.43;;;3.80;99.90;;;;;;4867752;29;20444;-81
2022/02/26 03:07:03;;;;;;;5.23;3.90;;;3.70;99.90;;;;;;4867160;29;20416;-81
2022/02/26 03:09:47;;;;;;;8.10;3.70;;;3.70;99.90;;;;;;4868519;29;20730;-81
2022/02/26 03:12:32;;;;;;;5.13;4.10;;;3.60;99.90;;;;;;4867284;29;20399;-83
2022/02/26 03:15:18;;;;;;;4.33;2.93;;;3.70;99.90;;;;;;4867331;29;20454;-82
2022/02/26 03:18:02;;;;;;;3.47;3.17;;;3.70;99.90;;;;;;4868957;29;20398;-82
2022/02/26 03:20:47;;;;;;;3.53;3.23;;;3.70;99.90;;;;;;4868181;29;20433;-83
2022/02/26 03:23:31;;;;;;;4.33;2.93;;;3.70;99.90;;;;;;4867513;29;20394;-83
2022/02/26 03:26:16;;;;;;;4.50;3.17;;;3.60;99.90;;;;;;4867995;29;20390;-82
2022/02/26 03:29:01;;;;;;;5.27;3.00;;;3.60;99.90;;;;;;4868514;29;20430;-82
2022/02/26 03:31:46;;;;;;;5.57;3.50;;;3.70;99.90;;;;;;4867657;29;20381;-83
2022/02/26 03:34:31;;;;;;;9.93;3.70;;;3.70;99.90;;;;;;4870554;29;20395;-82
2022/02/26 03:37:20;;;;;;;8.87;2.90;;;3.40;99.90;;;;;;4890717;29;20453;-82
2022/02/26 03:40:06;;;;;;;6.60;4.40;;;3.50;99.90;;;;;;4864505;29;20470;-82
2022/02/26 03:42:51;;;;;;;4.73;3.93;;;3.40;99.90;;;;;;4878192;29;20395;-83
2022/02/26 03:45:35;;;;;;;13.23;3.73;;;3.40;99.90;;;;;;4878092;29;20410;-81
2022/02/26 03:48:20;;;;;;;3.30;3.00;;;3.30;99.90;;;;;;4881160;29;20378;-82
2022/02/26 03:51:06;;;;;;;4.03;3.10;;;3.40;99.90;;;;;;4892587;29;20361;-81
2022/02/26 03:53:51;;;;;;;11.23;2.90;;;3.40;99.90;;;;;;4880074;29;20396;-80
2022/02/26 03:56:36;;;;;;;4.30;3.87;;;3.50;99.90;;;;;;4880021;29;20482;-82
2022/02/26 03:59:20;;;;;;;6.63;4.00;;;3.50;99.90;;;;;;4881864;29;20407;-82
2022/02/26 04:02:05;;;;;;;6.87;3.90;;;3.40;99.90;;;;;;4881465;29;20416;-81
2022/02/26 04:04:49;;;;;;;7.10;5.10;;;3.20;99.90;;;;;;4893576;29;20395;-81
2022/02/26 04:07:35;;;;;;;6.73;3.80;;;3.30;99.90;;;;;;4880606;29;20551;-82
2022/02/26 04:10:20;;;;;;;4.90;4.40;;;3.20;99.90;;;;;;4879992;29;20376;-81
2022/02/26 04:13:04;;;;;;;15.83;3.87;;;3.10;99.90;;;;;;4881716;29;20391;-79
2022/02/26 04:15:49;;;;;;;6.40;3.10;;;3.10;99.90;;;;;;4887945;29;20463;-81
2022/02/26 04:18:34;;;;;;;13.57;4.10;;;3.10;99.90;;;;;;4868443;29;20426;-82
2022/02/26 04:21:18;;;;;;;9.10;5.93;;;3.20;99.90;;;;;;4880202;29;20464;-80
2022/02/26 04:24:03;;;;;;;3.87;3.47;;;3.30;99.90;;;;;;4884066;29;20451;-80
2022/02/26 04:26:48;;;;;;;5.77;3.97;;;3.40;99.90;;;;;;4883175;29;20373;-80
2022/02/26 04:29:33;;;;;;;3.70;3.30;;;3.60;99.90;;;;;;4882930;29;20465;-82
2022/02/26 04:32:17;;;;;;;7.20;4.60;;;3.60;99.90;;;;;;4868403;29;20411;-82
2022/02/26 04:35:03;;;;;;;3.40;3.10;;;3.60;99.90;;;;;;4867529;29;20499;-81
2022/02/26 04:37:47;;;;;;;6.70;3.43;;;3.50;99.90;;;;;;4868384;29;20529;-82
2022/02/26 04:40:32;;;;;;;8.23;4.10;;;3.40;99.90;;;;;;4869940;29;20897;-81
2022/02/26 04:43:17;;;;;;;7.73;3.53;;;3.60;99.90;;;;;;4866151;29;20443;-80
2022/02/26 04:46:01;;;;;;;4.70;3.50;;;3.70;99.90;;;;;;4864458;29;20427;-81
2022/02/26 04:48:46;;;;;;;7.87;3.90;;;3.40;99.90;;;;;;4865373;29;20403;-82
2022/02/26 04:51:30;;;;;;;4.60;4.20;;;3.30;99.90;;;;;;4865106;29;20421;-82
2022/02/26 04:54:15;;;;;;;4.00;3.60;;;3.40;99.90;;;;;;4850821;29;20429;-81
2022/02/26 04:57:00;;;;;;;8.40;4.47;;;3.60;99.90;;;;;;4864882;29;20486;-82
2022/02/26 04:59:44;;;;;;;8.63;3.90;;;3.70;99.90;;;;;;4865466;29;20391;-81
2022/02/26 05:02:29;;;;;;;5.70;2.83;;;3.90;99.90;;;;;;4865310;29;20391;-82
2022/02/26 05:05:13;;;;;;;6.40;3.20;;;3.90;99.90;;;;;;4865935;29;20399;-82
2022/02/26 05:07:59;;;;;;;5.53;4.37;;;4.00;99.90;;;;;;4865447;29;20462;-82
2022/02/26 05:10:43;;;;;;;5.60;4.17;;;4.10;99.90;;;;;;4851440;29;20398;-82
2022/02/26 05:13:28;;;;;;;8.73;3.90;;;4.10;99.90;;;;;;4865079;29;20436;-81
2022/02/26 05:16:13;;;;;;;6.13;4.23;;;4.10;99.90;;;;;;4865440;29;20522;-81
2022/02/26 05:18:57;;;;;;;5.60;3.93;;;4.10;99.90;;;;;;4865010;29;20391;-81
2022/02/26 05:21:41;;;;;;;6.33;4.03;;;4.10;99.90;;;;;;4864887;29;20444;-81
2022/02/26 05:24:26;;;;;;;4.40;3.57;;;4.10;99.90;;;;;;4850762;29;20453;-80
2022/02/26 05:27:10;;;;;;;6.57;3.87;;;4.20;99.90;;;;;;4864282;29;20399;-81
2022/02/26 05:29:55;;;;;;;4.07;2.90;;;4.20;99.90;;;;;;4866280;29;20369;-81
2022/02/26 05:32:40;;;;;;;19.93;4.00;;;4.10;99.90;;;;;;4868432;29;20858;-81
2022/02/26 05:35:25;;;;;;;3.43;3.10;;;4.10;99.90;;;;;;4879152;29;20454;-80
2022/02/26 05:38:09;;;;;;;4.43;3.50;;;4.00;99.90;;;;;;4870978;29;20402;-82
2022/02/26 05:40:54;;;;;;;13.53;4.00;;;4.00;99.90;;;;;;4867826;29;20395;-81
2022/02/26 05:43:38;;;;;;;4.10;3.70;;;4.00;99.90;;;;;;4881247;29;20459;-81
2022/02/26 05:46:23;;;;;;;3.60;3.30;;;3.90;99.90;;;;;;4868866;29;20726;-81
2022/02/26 05:49:08;;;;;;;5.63;4.07;;;4.00;99.90;;;;;;4868837;29;20861;-81
2022/02/26 05:51:53;;;;;;;3.60;3.23;;;4.00;99.90;;;;;;4868140;29;20394;-81
2022/02/26 05:54:38;;;;;;;9.03;4.20;;;4.00;99.90;;;;;;4880135;29;20553;-81
2022/02/26 05:57:22;;;;;;;3.63;3.20;;;3.90;99.90;;;;;;4867995;29;20499;-81
2022/02/26 06:00:07;;;;;;;3.77;2.97;;;3.90;99.90;;;;;;4868678;29;20391;-81
2022/02/26 06:02:51;;;;;;;5.10;3.73;;;4.00;99.90;;;;;;4872903;29;20439;-81
2022/02/26 06:05:36;;;;;;;5.17;3.60;;;4.00;99.90;;;;;;4873900;29;20369;-80
2022/02/26 06:08:21;;;;;;;7.23;3.93;;;4.10;99.90;;;;;;4874346;29;20426;-80
2022/02/26 06:11:05;;;;;;;5.17;3.17;;;4.10;99.90;;;;;;4873440;29;20416;-81
2022/02/26 06:13:49;;;;;;;7.23;4.63;;;4.10;99.90;;;;;;4868142;29;20752;-81
2022/02/26 06:16:34;;;;;;;4.43;3.77;;;4.10;99.90;;;;;;4866808;29;20447;-81
2022/02/26 06:19:18;;;;;;;18.67;3.77;;;4.20;99.90;;;;;;4879985;29;20390;-81
2022/02/26 06:22:04;;;;;;;3.60;3.30;;;4.20;99.90;;;;;;4868397;29;20411;-81
2022/02/26 06:24:48;;;;;;;7.60;3.20;;;4.20;99.90;;;;;;4868398;29;20407;-81
2022/02/26 06:27:38;;;;;;;3.10;2.80;;;4.10;99.90;;;;;;4867840;29;20425;-82
2022/02/26 06:30:26;;;;;;;2.70;2.50;;;4.20;99.90;;;;;;4867774;29;20390;-81
2022/02/26 06:33:13;;;;;;;7.27;2.77;;;4.10;99.90;;;;;;4867466;29;20390;-81
2022/02/26 06:35:58;;;;;;;4.30;3.07;;;3.80;99.90;;;;;;4867391;29;21025;-81
2022/02/26 06:38:42;;;;;;;13.87;3.97;;;4.10;99.90;;;;;;4867677;29;20808;-81
2022/02/26 06:41:28;;;;;;;4.07;2.60;;;3.80;99.90;;;;;;4865931;29;20395;-81
2022/02/26 06:44:13;;;;;;;2.77;2.50;;;3.00;99.90;;;;;;4867910;29;20492;-81
2022/02/26 06:46:57;;;;;;;3.43;2.50;;;2.40;99.90;;;;;;4867135;29;20419;-81
2022/02/26 06:49:42;;;;;;;3.00;2.43;;;2.40;99.90;;;;;;4866835;29;20403;-80
2022/02/26 06:52:28;;;;;;;4.23;2.47;;;2.40;99.90;;;;;;4868076;29;20418;-81
2022/02/26 06:55:13;;;;;;;5.67;2.00;;;2.40;99.90;;;;;;4866811;29;20507;-80
2022/02/26 06:57:57;;;;;;;3.60;2.70;;;2.40;99.90;;;;;;4867225;29;20918;-80
2022/02/26 07:00:42;;;;;;;3.23;2.93;;;2.50;99.90;;;;;;4866561;29;20479;-79
2022/02/26 07:03:28;;;;;;;3.17;2.80;;;2.60;99.90;;;;;;4879275;29;20465;-81
2022/02/26 07:06:12;;;;;;;3.53;3.23;;;2.70;99.90;;;;;;4867587;29;20398;-81
2022/02/26 07:08:57;;;;;;;4.00;2.87;;;3.00;99.90;;;;;;4870087;29;20866;-82
2022/02/26 07:11:43;;;;;;;4.87;3.50;;;3.00;99.90;;;;;;4880175;29;20377;-81
2022/02/26 07:14:28;;;;;;;2.40;2.20;;;3.00;99.90;;;;;;4867481;29;20403;-81
2022/02/26 07:17:15;;;;;;;5.03;3.17;;;2.40;99.90;;;;;;4874484;29;20405;-79
2022/02/26 07:19:59;;;;;;;12.73;3.80;;;2.40;99.90;;;;;;4880542;29;20404;-80
2022/02/26 07:22:44;;;;;;;5.23;3.10;;;2.30;99.90;;;;;;4880904;29;20383;-78
2022/02/26 07:25:28;;;;;;;10.50;3.90;;;2.40;99.90;;;;;;4875607;29;20462;-81
2022/02/26 07:28:13;;;;;;;5.77;5.00;;;2.50;99.90;;;;;;4868112;29;20369;-81
2022/02/26 07:30:58;;;;;;;10.30;3.17;;;2.60;99.90;;;;;;4865918;29;20399;-81
2022/02/26 07:33:42;;;;;;;11.07;3.47;;;2.60;99.90;;;;;;4852695;29;20422;-81
2022/02/26 07:36:27;;;;;;;3.70;3.20;;;2.80;99.90;;;;;;4866870;29;20461;-82
2022/02/26 07:39:12;;;;;;;7.00;3.60;;;2.80;99.90;;;;;;4866386;29;20430;-81
2022/02/26 07:41:56;;;;;;;7.73;4.13;;;3.10;99.90;;;;;;4867104;29;20367;-81
2022/02/26 07:44:41;;;;;;;4.23;3.53;;;3.20;99.90;;;;;;4867047;29;20460;-81
2022/02/26 07:47:26;;;;;;;12.00;3.77;;;3.20;99.90;;;;;;4866079;29;20444;-81
2022/02/26 07:50:10;;;;;;;4.77;3.70;;;3.40;99.90;;;;;;4866993;29;20484;-81
2022/02/26 07:52:55;;;;;;;6.27;4.10;;;3.60;99.90;;;;;;4866695;29;20399;-81
2022/02/26 07:55:40;;;;;;;6.93;4.90;;;3.80;99.90;;;;;;4865134;29;20601;-81
2022/02/26 07:58:24;;;;;;;4.50;3.90;;;4.10;99.90;;;;;;4865709;29;20449;-82
2022/02/26 08:01:09;;;;;;;8.43;3.67;;;4.30;99.90;;;;;;4867021;29;20395;-82
2022/02/26 08:03:54;;;;;;;4.67;4.13;;;4.30;99.90;;;;;;4865940;29;20875;-81
2022/02/26 08:06:59;;;;;;;7.27;3.87;;;4.50;99.90;;;;;;4846023;29;20572;-80
2022/02/26 08:09:44;;;;;;;3.83;2.80;;;4.70;99.90;;;;;;4833348;29;20392;-83
2022/02/26 08:12:29;;;;;;;10.33;3.70;;;4.50;99.90;;;;;;4833383;29;20412;-83
2022/02/26 08:15:14;;;;;;;6.10;3.90;;;4.70;99.90;;;;;;4846127;29;20491;-80
2022/02/26 08:17:59;;;;;;;12.60;3.53;;;4.80;99.90;;;;;;4846226;29;20434;-82
2022/02/26 08:20:43;;;;;;;6.57;4.07;;;4.90;99.90;;;;;;4832803;29;20415;-81
2022/02/26 08:23:28;;;;;;;4.23;3.13;;;5.00;99.90;;;;;;4820656;29;20408;-82
2022/02/26 08:26:12;;;;;;;4.43;3.13;;;5.20;99.90;;;;;;4845786;29;20411;-81
2022/02/26 08:28:57;;;;;;;4.63;4.00;;;5.20;99.90;;;;;;4845718;29;20417;-81
2022/02/26 08:31:43;;;;;;;4.33;3.60;;;5.00;99.90;;;;;;4845881;29;20412;-80
2022/02/26 08:34:27;;;;;;;5.83;3.27;;;5.00;99.90;;;;;;4846491;29;20408;-83
2022/02/26 08:37:12;;;;;;;6.70;2.90;;;5.20;99.90;;;;;;4859300;29;20427;-81
2022/02/26 08:39:56;;;;;;;8.57;3.10;;;5.30;99.90;;;;;;4866840;29;20391;-81
2022/02/26 08:42:41;;;;;;;4.17;3.43;;;5.20;99.90;;;;;;4867321;29;20424;-81
2022/02/26 08:45:26;;;;;;;5.97;4.00;;;4.70;99.90;;;;;;4869285;29;20418;-80
2022/02/26 08:48:11;;;;;;;15.03;4.90;;;4.50;99.90;;;;;;4865569;29;20459;-81
2022/02/26 08:50:55;;;;;;;5.20;4.23;;;4.00;99.90;;;;;;4864926;29;20447;-81
2022/02/26 08:53:40;;;;;;;5.57;3.73;;;4.30;99.90;;;;;;4865216;29;20391;-81
2022/02/26 08:56:25;;;;;;;8.67;4.10;;;4.10;99.90;;;;;;4865333;29;20482;-81
2022/02/26 08:59:10;;;;;;;14.23;4.00;;;4.20;99.90;;;;;;4874328;29;20424;-81
2022/02/26 09:01:54;;;;;;;8.03;4.00;;;4.40;99.90;;;;;;4864705;29;20395;-81
2022/02/26 09:04:39;;;;;;;7.00;4.10;;;4.30;99.90;;;;;;4879879;29;20448;-81
2022/02/26 09:07:23;;;;;;;5.63;3.87;;;4.20;99.90;;;;;;4869459;29;20772;-80
2022/02/26 09:10:09;;;;;;;8.60;3.43;;;4.10;99.90;;;;;;4869262;29;20402;-81
2022/02/26 09:12:54;;;;;;;4.87;3.00;;;4.70;99.90;;;;;;4855649;29;20736;-81
2022/02/26 09:15:38;;;;;;;5.23;3.30;;;4.80;99.90;;;;;;4869511;29;20503;-81
2022/02/26 09:18:23;;;;;;;4.93;4.10;;;5.30;99.90;;;;;;4868364;29;20901;-80
2022/02/26 09:21:09;;;;;;;2.80;2.17;;;5.70;99.90;;;;;;4869436;29;20456;-80
2022/02/26 09:23:54;;;;;;;2.20;2.10;;;6.00;99.90;;;;;;4868233;29;20412;-81
2022/02/26 09:26:38;;;;;;;4.70;2.50;;;6.50;99.90;;;;;;4869063;29;20402;-80
2022/02/26 09:29:23;;;;;;;13.23;3.33;;;6.70;99.90;;;;;;4868354;29;20406;-81
2022/02/26 09:32:08;;;;;;;7.13;2.13;;;7.00;99.90;;;;;;4869025;29;20483;-80
2022/02/26 09:34:53;;;;;;;5.83;2.53;;;7.20;99.90;;;;;;4881428;29;20471;-81
2022/02/26 09:37:38;;;;;;;6.93;2.53;;;7.20;99.90;;;;;;4870993;29;20427;-81
2022/02/26 09:40:22;;;;;;;8.37;2.27;;;7.30;99.90;;;;;;4871030;29;20502;-80
2022/02/26 09:43:07;;;;;;;7.20;2.33;;;7.30;99.90;;;;;;4883844;29;20503;-82
2022/02/26 09:45:53;;;;;;;15.10;4.87;;;7.40;99.90;;;;;;4869429;29;20501;-81
2022/02/26 09:48:38;;;;;;;6.10;2.63;;;7.40;99.90;;;;;;4868618;29;20467;-81
2022/02/26 09:51:22;;;;;;;13.20;3.90;;;7.40;99.90;;;;;;4868194;29;20406;-81
2022/02/26 09:54:07;;;;;;;2.90;2.60;;;7.40;99.90;;;;;;4854724;29;20459;-80
2022/02/26 09:56:54;;;;;;;6.50;2.37;;;7.50;99.90;;;;;;4868535;29;20508;-81
2022/02/26 09:59:38;;;;;;;8.93;3.00;;;7.50;99.90;;;;;;4868615;29;20464;-82
2022/02/26 10:02:31;;;;;;;16.30;4.73;;;7.70;99.90;;;;;;4869816;29;20463;-80
2022/02/26 10:05:18;;;;;;;2.33;1.70;;;7.70;99.90;;;;;;4869338;29;20734;-81
2022/02/26 10:08:18;;;;;;;8.70;3.30;;;7.90;99.90;;;;;;4869182;29;20940;-80
2022/02/26 10:11:02;;;;;;;7.77;2.17;;;8.00;99.90;;;;;;4868970;29;20403;-80
2022/02/26 10:13:47;;;;;;;5.00;2.00;;;8.10;99.90;;;;;;4854686;29;20460;-81
2022/02/26 10:16:48;;;;;;;7.90;2.67;;;8.60;99.90;;;;;;4868597;29;20454;-81
2022/02/26 10:19:36;;;;;;;13.13;3.53;;;8.90;99.90;;;;;;4868818;29;20398;-81
2022/02/26 10:22:29;;;;;;;6.43;3.00;;;11.70;99.90;;;;;;4854315;29;20415;-80
2022/02/26 10:25:18;;;;;;;4.60;2.37;;;12.40;99.90;;;;;;4869047;29;20399;-81
2022/02/26 10:28:03;;;;;;;3.93;2.57;;;12.50;99.90;;;;;;4868228;29;20399;-80
2022/02/26 10:30:49;;;;;;;6.83;2.30;;;12.80;99.90;;;;;;4868607;29;20459;-83
2022/02/26 10:33:54;;;;;;;5.33;4.23;;;13.10;99.90;;;;;;4869043;29;20488;-81
2022/02/26 10:36:42;;;;;;;6.77;2.87;;;12.50;99.90;;;;;;4848445;29;20593;-81
2022/02/26 10:39:29;;;;;;;5.50;2.40;;;13.10;99.90;;;;;;4848874;29;20440;-82
2022/02/26 10:42:19;;;;;;;6.53;2.53;;;13.00;99.90;;;;;;4849707;29;20504;-81
2022/02/26 10:45:12;;;;;;;12.43;2.60;;;12.90;99.90;;;;;;4848953;29;20462;-82
2022/02/26 10:47:58;;;;;;;8.73;2.20;;;12.50;99.90;;;;;;4848726;29;20415;-82
2022/02/26 10:50:49;;;;;;;7.60;2.30;;;11.70;99.90;;;;;;4848779;29;20411;-82
2022/02/26 10:53:40;;;;;;;7.43;2.60;;;10.90;99.90;;;;;;4847766;29;20430;-81
2022/02/26 10:56:39;;;;;;;7.77;2.57;;;10.50;99.90;;;;;;4847502;29;20495;-82
2022/02/26 10:59:32;;;;;;;8.50;2.47;;;10.10;99.90;;;;;;4860432;29;20404;-81
2022/02/26 11:02:22;;;;;;;7.00;2.53;;;9.70;99.90;;;;;;4847569;29;20441;-81
2022/02/26 11:05:08;;;;;;;3.80;2.53;;;9.60;99.90;;;;;;4848772;29;20446;-82
2022/02/26 11:07:52;;;;;;;8.73;2.93;;;9.40;99.90;;;;;;4863180;29;20411;-81
2022/02/26 11:10:38;;;;;;;7.83;2.80;;;9.40;99.90;;;;;;4869226;29;20410;-81
2022/02/26 11:13:23;;;;;;;9.93;2.30;;;9.20;99.90;;;;;;4881073;29;20448;-80
2022/02/26 11:16:07;;;;;;;9.50;3.43;;;9.00;99.90;;;;;;4881090;29;20469;-82
2022/02/26 11:18:54;;;;;;;5.73;2.53;;;8.90;99.90;;;;;;4869016;29;20417;-82
2022/02/26 11:21:40;;;;;;;5.17;2.90;;;8.80;99.90;;;;;;4868823;29;20733;-82
2022/02/26 11:24:25;;;;;;;7.20;3.60;;;8.60;99.90;;;;;;4880573;29;20426;-81
2022/02/26 11:27:10;;;;;;;5.07;2.63;;;8.50;99.90;;;;;;4867821;29;20776;-81
2022/02/26 11:29:55;;;;;;;7.10;2.73;;;8.50;99.90;;;;;;4854343;29;20448;-80
2022/02/26 11:32:43;;;;;;;11.37;4.27;;;8.50;99.90;;;;;;4872032;29;20538;-80
2022/02/26 11:35:27;;;;;;;5.03;2.03;;;8.50;99.90;;;;;;4876240;29;20470;-79
2022/02/26 11:38:12;;;;;;;7.80;2.30;;;8.50;99.90;;;;;;4876108;29;20848;-82
2022/02/26 11:41:28;;;;;;;11.83;2.83;;;8.60;99.90;;;;;;4873527;29;20430;-79
2022/02/26 11:44:13;;;;;;;3.07;2.00;;;8.90;99.90;;;;;;4880216;29;20403;-81
2022/02/26 11:47:12;;;;;;;4.33;2.40;;;8.90;99.90;;;;;;4854970;29;20460;-80
2022/02/26 11:50:08;;;;;;;2.07;1.87;;;8.70;99.90;;;;;;4868024;29;20419;-81
2022/02/26 11:53:07;;;;;;;3.20;1.60;;;8.50;99.90;;;;;;4880356;29;20406;-81
2022/02/26 11:55:54;;;;;;;4.87;2.20;;;8.40;99.90;;;;;;4880181;29;20486;-78
2022/02/26 11:58:43;;;;;;;4.97;2.13;;;8.40;99.90;;;;;;4854024;29;20415;-81
2022/02/26 12:01:27;;;;;;;4.37;2.20;;;8.50;99.90;;;;;;4867587;29;20422;-82
2022/02/26 12:04:12;;;;;;;6.10;2.63;;;8.40;99.90;;;;;;4868239;29;20398;-81
2022/02/26 12:06:56;;;;;;;4.10;1.83;;;8.60;99.90;;;;;;4878889;29;20919;-81
2022/02/26 12:10:01;;;;;;;4.67;1.73;;;8.70;99.90;;;;;;4866610;29;20991;-82
2022/02/26 12:12:48;;;;;;;8.73;2.33;;;8.60;99.90;;;;;;4866312;29;20826;-80
2022/02/26 12:15:35;;;;;;;6.63;2.37;;;8.60;99.90;;;;;;4866916;29;20500;-81
2022/02/26 12:18:21;;;;;;;7.53;2.13;;;7.90;99.90;;;;;;4866548;29;20488;-83
2022/02/26 12:21:09;;;;;;;9.10;1.83;;;7.90;99.90;;;;;;4866743;29;20399;-82
2022/02/26 12:24:15;;;;;;;2.87;2.20;;;8.00;99.90;;;;;;4852231;29;20908;-81
2022/02/26 12:27:04;;;;;;;4.23;2.23;;;8.10;99.90;;;;;;4859320;29;20431;-81
2022/02/26 12:29:52;;;;;;;6.67;2.77;;;8.30;99.90;;;;;;4847126;29;20456;-82
2022/02/26 12:32:51;;;;;;;3.23;1.80;;;8.50;99.90;;;;;;4848421;29;20484;-83
2022/02/26 12:35:37;;;;;;;6.37;2.93;;;8.60;99.90;;;;;;4848692;29;20474;-82
2022/02/26 12:38:25;;;;;;;7.33;2.27;;;8.40;99.90;;;;;;4847984;29;20400;-83
2022/02/26 12:41:28;;;;;;;4.37;2.47;;;8.70;99.90;;;;;;4860857;29;20424;-82
2022/02/26 12:44:14;;;;;;;3.43;2.17;;;8.50;99.90;;;;;;4847829;29;20454;-81
2022/02/26 12:46:59;;;;;;;6.70;1.90;;;8.80;99.90;;;;;;4847114;29;20423;-81
2022/02/26 12:49:44;;;;;;;2.23;1.83;;;8.90;99.90;;;;;;4849074;29;20779;-82
2022/02/26 12:52:31;;;;;;;8.63;2.43;;;8.90;99.90;;;;;;4848362;29;20445;-80
2022/02/26 12:55:17;;;;;;;1.70;1.60;;;9.10;99.90;;;;;;4846817;29;20542;-78
2022/02/26 12:58:01;;;;;;;5.57;2.77;;;9.10;99.90;;;;;;4853083;29;20472;-82
2022/02/26 13:00:49;;;;;;;2.80;2.40;;;9.10;99.90;;;;;;4869789;29;20439;-82
2022/02/26 13:03:34;;;;;;;3.83;1.90;;;9.20;99.90;;;;;;4877524;29;20411;-81
2022/02/26 13:06:19;;;;;;;7.53;1.77;;;8.90;99.90;;;;;;4856472;29;20453;-81
2022/02/26 13:09:06;;;;;;;3.53;1.70;;;9.30;99.90;;;;;;4857780;29;20550;-81
2022/02/26 13:11:52;;;;;;;3.90;2.10;;;9.30;99.90;;;;;;4859066;29;20439;-80
2022/02/26 13:14:36;;;;;;;3.73;2.13;;;9.40;99.90;;;;;;4870461;29;20425;-81
2022/02/26 13:17:24;;;;;;;6.70;2.87;;;9.40;99.90;;;;;;4856111;29;20476;-80
2022/02/26 13:20:24;;;;;;;2.90;1.77;;;8.50;99.90;;;;;;4871737;29;20430;-83
2022/02/26 13:23:11;;;;;;;1.63;1.50;;;8.20;99.90;;;;;;4856409;29;20424;-82
2022/02/26 13:25:55;;;;;;;2.43;1.90;;;8.40;99.90;;;;;;4857954;29;20517;-80
2022/02/26 13:28:40;;;;;;;4.67;2.57;;;8.60;99.90;;;;;;4871596;29;20422;-82
2022/02/26 13:31:34;;;;;;;21.93;8.80;;;8.60;99.90;;;;;;4844745;29;20427;-80
2022/02/26 13:34:21;;;;;;;3.87;2.63;;;8.60;99.90;;;;;;4859875;29;20396;-79
2022/02/26 13:37:05;;;;;;;4.10;1.63;;;8.70;99.90;;;;;;4871388;29;20527;-81
2022/02/26 13:39:51;;;;;;;3.90;2.70;;;8.70;99.90;;;;;;4858251;29;20404;-80
2022/02/26 13:42:37;;;;;;;8.70;2.20;;;8.60;99.90;;;;;;4872788;29;20900;-80
2022/02/26 13:45:25;;;;;;;6.03;4.93;;;8.90;99.90;;;;;;4887709;29;20863;-80
2022/02/26 13:48:18;;;;;;;3.97;1.90;;;8.90;99.90;;;;;;4858521;29;20440;-83
2022/02/26 13:51:02;;;;;;;6.97;3.70;;;9.00;99.90;;;;;;4869660;29;20414;-82
2022/02/26 13:53:46;;;;;;;3.87;2.23;;;9.00;99.90;;;;;;4870663;29;20487;-81
2022/02/26 13:56:31;;;;;;;4.07;2.33;;;8.70;99.90;;;;;;4869838;29;20482;-82
2022/02/26 13:59:16;;;;;;;1.80;1.40;;;8.40;99.90;;;;;;4870333;29;20415;-80
2022/02/26 14:02:01;;;;;;;6.20;2.70;;;8.10;99.90;;;;;;4870629;29;20478;-82
2022/02/26 14:04:46;;;;;;;5.20;2.20;;;7.70;99.90;;;;;;4883444;29;20399;-82
2022/02/26 14:07:34;;;;;;;4.60;2.30;;;7.80;99.90;;;;;;4870172;29;20420;-83
2022/02/26 14:10:21;;;;;;;3.10;2.10;;;8.20;99.90;;;;;;4870650;29;20447;-82
2022/02/26 14:13:15;;;;;;;3.97;2.37;;;8.40;99.90;;;;;;4856181;29;20414;-81
2022/02/26 14:16:06;;;;;;;11.30;2.87;;;8.50;99.90;;;;;;4869393;29;20478;-81
2022/02/26 14:18:51;;;;;;;3.93;2.03;;;8.70;99.90;;;;;;4868206;29;20488;-81
2022/02/26 14:21:35;;;;;;;4.90;2.53;;;8.70;99.90;;;;;;4855203;29;20392;-81
2022/02/26 14:24:22;;;;;;;5.63;2.70;;;8.80;99.90;;;;;;4868314;29;20468;-81
2022/02/26 14:27:07;;;;;;;3.00;2.27;;;8.80;99.90;;;;;;4868226;29;20417;-81
2022/02/26 14:30:12;;;;;;;4.00;2.20;;;8.60;99.90;;;;;;4869172;29;20900;-81
2022/02/26 14:33:16;;;;;;;3.77;2.00;;;9.50;99.90;;;;;;4867207;29;20423;-81
2022/02/26 14:36:01;;;;;;;6.03;2.20;;;10.00;99.90;;;;;;4854402;29;20486;-82
2022/02/26 14:38:47;;;;;;;4.63;2.70;;;10.10;99.90;;;;;;4853776;29;20476;-82